Terminal Aerodrome Forecast
Issued by NWS

Home | Current Version | Previous Version | Text Only | Print | Product List | Glossary On
Versions: 1 2 3 4 5 6 7 8 9 10 11 12 13 14 15 16 17 18 19 20
682
FTUS41 KPHI 290520
TAFMIV
TAF
KMIV 290520Z 2906/3006 07011G20KT 5SM -SHRA BR OVC010
      TEMPO 2907/2911 3SM -SHRA OVC007
     FM291100 06012G22KT 5SM -DZ BR BKN009 OVC015
     FM291600 08012G23KT 6SM -DZ OVC010
     FM300000 07015G26KT P6SM -SHRA OVC007=

USA.gov is the U.S. government's official web portal to all federal, state and local government web resources and services.